sensor_id;sensor_type;location;lat;lon;timestamp;P1;durP1;ratioP1;P2;durP2;ratioP2
79493;SDS011;68951;53.130;18.104;2023-06-22T00:01:18;15.90;;;9.60;;
79493;SDS011;68951;53.130;18.104;2023-06-22T00:03:46;13.00;;;9.70;;
79493;SDS011;68951;53.130;18.104;2023-06-22T00:06:13;12.40;;;9.70;;
79493;SDS011;68951;53.130;18.104;2023-06-22T00:08:40;12.70;;;9.50;;
79493;SDS011;68951;53.130;18.104;2023-06-22T00:11:07;15.80;;;10.00;;
79493;SDS011;68951;53.130;18.104;2023-06-22T00:13:34;13.70;;;9.60;;
79493;SDS011;68951;53.130;18.104;2023-06-22T00:16:01;13.40;;;9.90;;
79493;SDS011;68951;53.130;18.104;2023-06-22T00:18:28;13.40;;;9.70;;
79493;SDS011;68951;53.130;18.104;2023-06-22T00:20:57;10.80;;;9.10;;
79493;SDS011;68951;53.130;18.104;2023-06-22T00:23:26;13.00;;;9.60;;
79493;SDS011;68951;53.130;18.104;2023-06-22T00:25:53;12.10;;;9.10;;
79493;SDS011;68951;53.130;18.104;2023-06-22T00:28:20;12.90;;;9.90;;
79493;SDS011;68951;53.130;18.104;2023-06-22T00:30:48;14.00;;;10.10;;
79493;SDS011;68951;53.130;18.104;2023-06-22T00:33:15;14.60;;;10.60;;
79493;SDS011;68951;53.130;18.104;2023-06-22T00:35:43;12.80;;;9.50;;
79493;SDS011;68951;53.130;18.104;2023-06-22T00:38:09;11.10;;;9.00;;
79493;SDS011;68951;53.130;18.104;2023-06-22T00:40:37;11.30;;;8.90;;
79493;SDS011;68951;53.130;18.104;2023-06-22T00:43:04;11.00;;;8.60;;
79493;SDS011;68951;53.130;18.104;2023-06-22T00:45:32;11.90;;;8.70;;
79493;SDS011;68951;53.130;18.104;2023-06-22T00:47:59;12.30;;;9.30;;
79493;SDS011;68951;53.130;18.104;2023-06-22T00:50:28;13.40;;;9.30;;
79493;SDS011;68951;53.130;18.104;2023-06-22T00:53:06;11.50;;;9.20;;
79493;SDS011;68951;53.130;18.104;2023-06-22T00:55:41;11.80;;;8.50;;
79493;SDS011;68951;53.130;18.104;2023-06-22T00:58:13;13.40;;;9.60;;
79493;SDS011;68951;53.130;18.104;2023-06-22T01:00:40;13.60;;;9.90;;
79493;SDS011;68951;53.130;18.104;2023-06-22T01:03:08;13.20;;;10.40;;
79493;SDS011;68951;53.130;18.104;2023-06-22T01:05:36;13.90;;;10.40;;
79493;SDS011;68951;53.130;18.104;2023-06-22T01:11:12;10.50;;;8.40;;
79493;SDS011;68951;53.130;18.104;2023-06-22T01:13:57;10.90;;;7.50;;
79493;SDS011;68951;53.130;18.104;2023-06-22T01:16:31;11.00;;;7.90;;
79493;SDS011;68951;53.130;18.104;2023-06-22T01:19:09;13.10;;;8.20;;
79493;SDS011;68951;53.130;18.104;2023-06-22T01:21:56;13.00;;;9.20;;
79493;SDS011;68951;53.130;18.104;2023-06-22T01:24:30;12.50;;;9.80;;
79493;SDS011;68951;53.130;18.104;2023-06-22T01:27:18;13.30;;;9.80;;
79493;SDS011;68951;53.130;18.104;2023-06-22T01:29:59;12.00;;;9.10;;
79493;SDS011;68951;53.130;18.104;2023-06-22T01:32:31;12.10;;;8.90;;
79493;SDS011;68951;53.130;18.104;2023-06-22T01:35:02;12.50;;;8.40;;
79493;SDS011;68951;53.130;18.104;2023-06-22T01:37:33;12.30;;;9.50;;
79493;SDS011;68951;53.130;18.104;2023-06-22T01:40:02;15.20;;;8.70;;
79493;SDS011;68951;53.130;18.104;2023-06-22T01:42:32;13.10;;;8.80;;
79493;SDS011;68951;53.130;18.104;2023-06-22T01:44:59;11.80;;;8.70;;
79493;SDS011;68951;53.130;18.104;2023-06-22T01:47:27;10.90;;;8.00;;
79493;SDS011;68951;53.130;18.104;2023-06-22T01:49:54;10.70;;;7.40;;
79493;SDS011;68951;53.130;18.104;2023-06-22T01:52:22;11.40;;;7.80;;
79493;SDS011;68951;53.130;18.104;2023-06-22T01:54:48;11.90;;;8.10;;
79493;SDS011;68951;53.130;18.104;2023-06-22T01:57:15;9.60;;;7.90;;
79493;SDS011;68951;53.130;18.104;2023-06-22T02:00:04;9.90;;;7.80;;
79493;SDS011;68951;53.130;18.104;2023-06-22T02:02:45;13.10;;;9.20;;
79493;SDS011;68951;53.130;18.104;2023-06-22T02:05:19;11.90;;;8.20;;
79493;SDS011;68951;53.130;18.104;2023-06-22T02:08:11;12.30;;;8.90;;
79493;SDS011;68951;53.130;18.104;2023-06-22T02:10:45;12.40;;;8.50;;
79493;SDS011;68951;53.130;18.104;2023-06-22T02:13:13;14.80;;;9.90;;
79493;SDS011;68951;53.130;18.104;2023-06-22T02:15:41;13.20;;;8.70;;
79493;SDS011;68951;53.130;18.104;2023-06-22T02:18:08;13.90;;;8.40;;
79493;SDS011;68951;53.130;18.104;2023-06-22T02:20:39;13.50;;;7.70;;
79493;SDS011;68951;53.130;18.104;2023-06-22T02:23:06;11.50;;;7.60;;
79493;SDS011;68951;53.130;18.104;2023-06-22T02:25:34;10.40;;;7.20;;
79493;SDS011;68951;53.130;18.104;2023-06-22T02:28:02;10.40;;;7.20;;
79493;SDS011;68951;53.130;18.104;2023-06-22T02:30:30;11.50;;;7.50;;
79493;SDS011;68951;53.130;18.104;2023-06-22T02:32:58;14.40;;;8.00;;
79493;SDS011;68951;53.130;18.104;2023-06-22T02:35:26;12.80;;;7.80;;
79493;SDS011;68951;53.130;18.104;2023-06-22T02:37:58;10.30;;;6.40;;
79493;SDS011;68951;53.130;18.104;2023-06-22T02:40:27;12.40;;;6.60;;
79493;SDS011;68951;53.130;18.104;2023-06-22T02:42:57;12.30;;;7.00;;
79493;SDS011;68951;53.130;18.104;2023-06-22T02:45:28;10.80;;;6.90;;
79493;SDS011;68951;53.130;18.104;2023-06-22T02:47:56;11.10;;;7.10;;
79493;SDS011;68951;53.130;18.104;2023-06-22T02:50:23;14.40;;;7.50;;
79493;SDS011;68951;53.130;18.104;2023-06-22T02:52:50;11.40;;;7.10;;
79493;SDS011;68951;53.130;18.104;2023-06-22T02:55:17;11.50;;;8.00;;
79493;SDS011;68951;53.130;18.104;2023-06-22T02:57:44;21.10;;;10.10;;
79493;SDS011;68951;53.130;18.104;2023-06-22T03:00:13;17.70;;;9.30;;
79493;SDS011;68951;53.130;18.104;2023-06-22T03:02:44;9.90;;;6.50;;
79493;SDS011;68951;53.130;18.104;2023-06-22T03:05:13;11.80;;;7.30;;
79493;SDS011;68951;53.130;18.104;2023-06-22T03:07:41;12.30;;;7.00;;
79493;SDS011;68951;53.130;18.104;2023-06-22T03:10:10;8.80;;;6.40;;
79493;SDS011;68951;53.130;18.104;2023-06-22T03:12:38;9.10;;;6.20;;
79493;SDS011;68951;53.130;18.104;2023-06-22T03:15:14;9.20;;;5.70;;
79493;SDS011;68951;53.130;18.104;2023-06-22T03:17:41;10.70;;;6.40;;
79493;SDS011;68951;53.130;18.104;2023-06-22T03:20:09;9.00;;;6.10;;
79493;SDS011;68951;53.130;18.104;2023-06-22T03:22:41;9.40;;;5.90;;
79493;SDS011;68951;53.130;18.104;2023-06-22T03:25:09;9.20;;;5.60;;
79493;SDS011;68951;53.130;18.104;2023-06-22T03:27:37;8.30;;;4.70;;
79493;SDS011;68951;53.130;18.104;2023-06-22T03:30:05;11.60;;;6.40;;
79493;SDS011;68951;53.130;18.104;2023-06-22T03:32:35;8.90;;;4.80;;
79493;SDS011;68951;53.130;18.104;2023-06-22T03:35:02;7.80;;;4.30;;
79493;SDS011;68951;53.130;18.104;2023-06-22T03:37:29;9.30;;;4.80;;
79493;SDS011;68951;53.130;18.104;2023-06-22T03:39:56;8.80;;;4.90;;
79493;SDS011;68951;53.130;18.104;2023-06-22T03:42:23;10.70;;;5.10;;
79493;SDS011;68951;53.130;18.104;2023-06-22T03:44:50;8.00;;;5.10;;
79493;SDS011;68951;53.130;18.104;2023-06-22T03:47:17;7.10;;;4.00;;
79493;SDS011;68951;53.130;18.104;2023-06-22T03:49:44;8.50;;;4.80;;
79493;SDS011;68951;53.130;18.104;2023-06-22T03:52:10;9.10;;;5.30;;
79493;SDS011;68951;53.130;18.104;2023-06-22T03:54:37;8.60;;;4.80;;
79493;SDS011;68951;53.130;18.104;2023-06-22T03:57:04;8.80;;;4.80;;
79493;SDS011;68951;53.130;18.104;2023-06-22T03:59:32;8.70;;;4.50;;
79493;SDS011;68951;53.130;18.104;2023-06-22T04:01:59;8.30;;;4.60;;
79493;SDS011;68951;53.130;18.104;2023-06-22T04:04:26;7.80;;;4.90;;
79493;SDS011;68951;53.130;18.104;2023-06-22T04:06:52;9.60;;;4.90;;
79493;SDS011;68951;53.130;18.104;2023-06-22T04:09:19;9.70;;;4.90;;
79493;SDS011;68951;53.130;18.104;2023-06-22T04:11:47;7.50;;;4.60;;
79493;SDS011;68951;53.130;18.104;2023-06-22T04:14:14;10.40;;;5.10;;
79493;SDS011;68951;53.130;18.104;2023-06-22T04:16:41;8.20;;;4.70;;
79493;SDS011;68951;53.130;18.104;2023-06-22T04:19:08;8.00;;;4.80;;
79493;SDS011;68951;53.130;18.104;2023-06-22T04:21:40;7.50;;;4.90;;
79493;SDS011;68951;53.130;18.104;2023-06-22T04:24:07;10.60;;;4.60;;
79493;SDS011;68951;53.130;18.104;2023-06-22T04:26:34;7.90;;;3.80;;
79493;SDS011;68951;53.130;18.104;2023-06-22T04:29:04;7.30;;;4.20;;
79493;SDS011;68951;53.130;18.104;2023-06-22T04:31:32;8.80;;;4.20;;
79493;SDS011;68951;53.130;18.104;2023-06-22T04:34:03;7.70;;;4.40;;
79493;SDS011;68951;53.130;18.104;2023-06-22T04:36:38;6.80;;;3.70;;
79493;SDS011;68951;53.130;18.104;2023-06-22T04:39:08;7.30;;;4.20;;
79493;SDS011;68951;53.130;18.104;2023-06-22T04:41:38;8.10;;;4.20;;
79493;SDS011;68951;53.130;18.104;2023-06-22T04:44:09;7.30;;;3.80;;
79493;SDS011;68951;53.130;18.104;2023-06-22T04:46:55;7.20;;;4.20;;
79493;SDS011;68951;53.130;18.104;2023-06-22T04:49:35;7.70;;;4.00;;
79493;SDS011;68951;53.130;18.104;2023-06-22T04:52:07;8.00;;;4.10;;
79493;SDS011;68951;53.130;18.104;2023-06-22T04:54:37;6.50;;;4.20;;
79493;SDS011;68951;53.130;18.104;2023-06-22T04:57:06;7.50;;;3.70;;
79493;SDS011;68951;53.130;18.104;2023-06-22T04:59:38;8.10;;;4.10;;
79493;SDS011;68951;53.130;18.104;2023-06-22T05:02:08;7.60;;;3.50;;
79493;SDS011;68951;53.130;18.104;2023-06-22T05:04:35;9.30;;;4.20;;
79493;SDS011;68951;53.130;18.104;2023-06-22T05:07:05;7.30;;;4.20;;
79493;SDS011;68951;53.130;18.104;2023-06-22T05:09:31;8.50;;;4.00;;
79493;SDS011;68951;53.130;18.104;2023-06-22T05:12:00;9.50;;;4.30;;
79493;SDS011;68951;53.130;18.104;2023-06-22T05:14:29;10.60;;;3.70;;
79493;SDS011;68951;53.130;18.104;2023-06-22T05:16:56;9.10;;;4.10;;
79493;SDS011;68951;53.130;18.104;2023-06-22T05:19:30;6.10;;;3.80;;
79493;SDS011;68951;53.130;18.104;2023-06-22T05:21:59;7.90;;;3.50;;
79493;SDS011;68951;53.130;18.104;2023-06-22T05:24:26;9.10;;;3.70;;
79493;SDS011;68951;53.130;18.104;2023-06-22T05:26:53;8.60;;;3.90;;
79493;SDS011;68951;53.130;18.104;2023-06-22T05:29:20;7.00;;;3.40;;
79493;SDS011;68951;53.130;18.104;2023-06-22T05:31:49;7.50;;;4.20;;
79493;SDS011;68951;53.130;18.104;2023-06-22T05:34:16;7.40;;;3.80;;
79493;SDS011;68951;53.130;18.104;2023-06-22T05:36:42;7.00;;;3.80;;
79493;SDS011;68951;53.130;18.104;2023-06-22T05:39:14;8.60;;;4.00;;
79493;SDS011;68951;53.130;18.104;2023-06-22T05:41:42;7.80;;;4.00;;
79493;SDS011;68951;53.130;18.104;2023-06-22T05:44:09;8.00;;;3.60;;
79493;SDS011;68951;53.130;18.104;2023-06-22T05:46:36;8.50;;;3.70;;
79493;SDS011;68951;53.130;18.104;2023-06-22T05:49:03;8.30;;;3.80;;
79493;SDS011;68951;53.130;18.104;2023-06-22T05:51:30;7.00;;;3.50;;
79493;SDS011;68951;53.130;18.104;2023-06-22T05:53:58;7.80;;;3.20;;
79493;SDS011;68951;53.130;18.104;2023-06-22T05:56:25;7.00;;;4.10;;
79493;SDS011;68951;53.130;18.104;2023-06-22T05:58:51;7.60;;;4.20;;
79493;SDS011;68951;53.130;18.104;2023-06-22T06:01:18;9.40;;;4.10;;
79493;SDS011;68951;53.130;18.104;2023-06-22T06:03:45;8.90;;;3.80;;
79493;SDS011;68951;53.130;18.104;2023-06-22T06:06:12;7.80;;;3.40;;
79493;SDS011;68951;53.130;18.104;2023-06-22T06:08:39;7.70;;;3.10;;
79493;SDS011;68951;53.130;18.104;2023-06-22T06:11:06;6.40;;;3.30;;
79493;SDS011;68951;53.130;18.104;2023-06-22T06:13:33;7.50;;;3.80;;
79493;SDS011;68951;53.130;18.104;2023-06-22T06:15:59;8.20;;;3.70;;
79493;SDS011;68951;53.130;18.104;2023-06-22T06:18:27;6.70;;;3.00;;
79493;SDS011;68951;53.130;18.104;2023-06-22T06:20:54;6.90;;;3.00;;
79493;SDS011;68951;53.130;18.104;2023-06-22T06:23:21;6.60;;;3.50;;
79493;SDS011;68951;53.130;18.104;2023-06-22T06:25:47;8.00;;;3.20;;
79493;SDS011;68951;53.130;18.104;2023-06-22T06:28:14;6.00;;;3.30;;
79493;SDS011;68951;53.130;18.104;2023-06-22T06:30:41;7.90;;;3.70;;
79493;SDS011;68951;53.130;18.104;2023-06-22T06:33:08;6.30;;;2.50;;
79493;SDS011;68951;53.130;18.104;2023-06-22T06:35:35;6.00;;;2.90;;
79493;SDS011;68951;53.130;18.104;2023-06-22T06:38:04;7.80;;;3.30;;
79493;SDS011;68951;53.130;18.104;2023-06-22T06:40:31;6.40;;;3.00;;
79493;SDS011;68951;53.130;18.104;2023-06-22T06:42:57;7.60;;;3.10;;
79493;SDS011;68951;53.130;18.104;2023-06-22T06:45:25;5.80;;;2.50;;
79493;SDS011;68951;53.130;18.104;2023-06-22T06:47:53;5.80;;;2.50;;
79493;SDS011;68951;53.130;18.104;2023-06-22T06:50:20;5.70;;;2.50;;
79493;SDS011;68951;53.130;18.104;2023-06-22T06:52:47;5.40;;;2.50;;
79493;SDS011;68951;53.130;18.104;2023-06-22T06:55:16;4.70;;;2.30;;
79493;SDS011;68951;53.130;18.104;2023-06-22T06:57:43;5.40;;;2.60;;
79493;SDS011;68951;53.130;18.104;2023-06-22T07:00:12;7.40;;;2.50;;
79493;SDS011;68951;53.130;18.104;2023-06-22T07:02:42;5.40;;;2.50;;
79493;SDS011;68951;53.130;18.104;2023-06-22T07:05:12;4.40;;;2.30;;
79493;SDS011;68951;53.130;18.104;2023-06-22T07:07:39;5.20;;;2.40;;
79493;SDS011;68951;53.130;18.104;2023-06-22T07:10:06;11.00;;;2.90;;
79493;SDS011;68951;53.130;18.104;2023-06-22T07:12:33;7.70;;;2.70;;
79493;SDS011;68951;53.130;18.104;2023-06-22T07:15:03;6.80;;;2.50;;
79493;SDS011;68951;53.130;18.104;2023-06-22T07:17:31;4.30;;;2.20;;
79493;SDS011;68951;53.130;18.104;2023-06-22T07:19:58;6.90;;;2.20;;
79493;SDS011;68951;53.130;18.104;2023-06-22T07:22:25;19.10;;;7.70;;
79493;SDS011;68951;53.130;18.104;2023-06-22T07:24:52;30.20;;;11.50;;
79493;SDS011;68951;53.130;18.104;2023-06-22T07:27:18;7.10;;;2.90;;
79493;SDS011;68951;53.130;18.104;2023-06-22T07:29:46;8.10;;;3.00;;
79493;SDS011;68951;53.130;18.104;2023-06-22T07:32:13;7.40;;;2.60;;
79493;SDS011;68951;53.130;18.104;2023-06-22T07:34:40;13.70;;;5.20;;
79493;SDS011;68951;53.130;18.104;2023-06-22T07:37:07;9.40;;;3.30;;
79493;SDS011;68951;53.130;18.104;2023-06-22T07:39:34;6.60;;;3.00;;
79493;SDS011;68951;53.130;18.104;2023-06-22T07:42:01;10.10;;;3.90;;
79493;SDS011;68951;53.130;18.104;2023-06-22T07:44:28;7.50;;;2.70;;
79493;SDS011;68951;53.130;18.104;2023-06-22T07:46:55;6.00;;;2.80;;
79493;SDS011;68951;53.130;18.104;2023-06-22T07:49:21;4.60;;;2.00;;
79493;SDS011;68951;53.130;18.104;2023-06-22T07:51:48;4.90;;;2.00;;
79493;SDS011;68951;53.130;18.104;2023-06-22T07:54:15;5.30;;;1.90;;
79493;SDS011;68951;53.130;18.104;2023-06-22T07:56:43;6.10;;;2.50;;
79493;SDS011;68951;53.130;18.104;2023-06-22T07:59:09;5.80;;;2.40;;
79493;SDS011;68951;53.130;18.104;2023-06-22T08:01:36;5.70;;;2.10;;
79493;SDS011;68951;53.130;18.104;2023-06-22T08:04:03;7.20;;;3.50;;
79493;SDS011;68951;53.130;18.104;2023-06-22T08:06:30;5.30;;;2.60;;
79493;SDS011;68951;53.130;18.104;2023-06-22T08:08:57;4.80;;;1.90;;
79493;SDS011;68951;53.130;18.104;2023-06-22T08:11:25;4.60;;;2.20;;
79493;SDS011;68951;53.130;18.104;2023-06-22T08:13:52;5.20;;;2.40;;
79493;SDS011;68951;53.130;18.104;2023-06-22T08:16:19;7.40;;;2.50;;
79493;SDS011;68951;53.130;18.104;2023-06-22T08:18:45;6.20;;;2.20;;
79493;SDS011;68951;53.130;18.104;2023-06-22T08:21:12;4.80;;;2.00;;
79493;SDS011;68951;53.130;18.104;2023-06-22T08:23:39;5.20;;;2.10;;
79493;SDS011;68951;53.130;18.104;2023-06-22T08:26:06;4.10;;;1.90;;
79493;SDS011;68951;53.130;18.104;2023-06-22T08:28:33;5.10;;;2.10;;
79493;SDS011;68951;53.130;18.104;2023-06-22T08:31:00;5.70;;;2.50;;
79493;SDS011;68951;53.130;18.104;2023-06-22T08:33:28;5.00;;;2.10;;
79493;SDS011;68951;53.130;18.104;2023-06-22T08:35:58;4.90;;;2.10;;
79493;SDS011;68951;53.130;18.104;2023-06-22T08:38:25;5.80;;;2.10;;
79493;SDS011;68951;53.130;18.104;2023-06-22T08:40:52;5.90;;;2.50;;
79493;SDS011;68951;53.130;18.104;2023-06-22T08:43:19;4.80;;;2.00;;
79493;SDS011;68951;53.130;18.104;2023-06-22T08:45:45;5.20;;;2.70;;
79493;SDS011;68951;53.130;18.104;2023-06-22T08:48:12;5.50;;;2.30;;
79493;SDS011;68951;53.130;18.104;2023-06-22T08:50:39;6.30;;;2.40;;
79493;SDS011;68951;53.130;18.104;2023-06-22T08:53:06;6.00;;;2.20;;
79493;SDS011;68951;53.130;18.104;2023-06-22T08:55:33;5.80;;;2.50;;
79493;SDS011;68951;53.130;18.104;2023-06-22T08:58:00;5.40;;;1.80;;
79493;SDS011;68951;53.130;18.104;2023-06-22T09:00:27;6.70;;;2.70;;
79493;SDS011;68951;53.130;18.104;2023-06-22T09:02:55;4.30;;;1.80;;
79493;SDS011;68951;53.130;18.104;2023-06-22T09:05:25;5.00;;;2.40;;
79493;SDS011;68951;53.130;18.104;2023-06-22T09:07:56;5.30;;;2.10;;
79493;SDS011;68951;53.130;18.104;2023-06-22T09:10:25;5.00;;;2.40;;
79493;SDS011;68951;53.130;18.104;2023-06-22T09:12:52;6.60;;;2.70;;
79493;SDS011;68951;53.130;18.104;2023-06-22T09:15:19;6.80;;;2.40;;
79493;SDS011;68951;53.130;18.104;2023-06-22T09:17:47;4.20;;;2.20;;
79493;SDS011;68951;53.130;18.104;2023-06-22T09:20:14;5.00;;;2.80;;
79493;SDS011;68951;53.130;18.104;2023-06-22T09:22:42;5.10;;;2.20;;
79493;SDS011;68951;53.130;18.104;2023-06-22T09:25:09;7.90;;;2.20;;
79493;SDS011;68951;53.130;18.104;2023-06-22T09:27:36;4.60;;;2.50;;
79493;SDS011;68951;53.130;18.104;2023-06-22T09:30:03;5.50;;;2.60;;
79493;SDS011;68951;53.130;18.104;2023-06-22T09:32:30;5.20;;;2.40;;
79493;SDS011;68951;53.130;18.104;2023-06-22T09:34:57;4.40;;;2.30;;
79493;SDS011;68951;53.130;18.104;2023-06-22T09:37:24;5.90;;;2.10;;
79493;SDS011;68951;53.130;18.104;2023-06-22T09:39:51;4.90;;;2.50;;
79493;SDS011;68951;53.130;18.104;2023-06-22T09:42:17;4.30;;;2.50;;
79493;SDS011;68951;53.130;18.104;2023-06-22T09:44:44;5.00;;;2.60;;
79493;SDS011;68951;53.130;18.104;2023-06-22T09:47:11;5.60;;;2.10;;
79493;SDS011;68951;53.130;18.104;2023-06-22T09:49:38;5.40;;;2.30;;
79493;SDS011;68951;53.130;18.104;2023-06-22T09:52:05;5.30;;;2.70;;
79493;SDS011;68951;53.130;18.104;2023-06-22T09:54:32;5.50;;;2.60;;
79493;SDS011;68951;53.130;18.104;2023-06-22T09:56:59;4.80;;;2.60;;
79493;SDS011;68951;53.130;18.104;2023-06-22T09:59:26;6.00;;;2.30;;
79493;SDS011;68951;53.130;18.104;2023-06-22T10:01:53;5.40;;;2.40;;
79493;SDS011;68951;53.130;18.104;2023-06-22T10:04:19;5.20;;;2.50;;
79493;SDS011;68951;53.130;18.104;2023-06-22T10:06:46;7.80;;;2.80;;
79493;SDS011;68951;53.130;18.104;2023-06-22T10:09:14;4.80;;;2.40;;
79493;SDS011;68951;53.130;18.104;2023-06-22T10:11:40;4.50;;;2.20;;
79493;SDS011;68951;53.130;18.104;2023-06-22T10:14:07;4.90;;;3.00;;
79493;SDS011;68951;53.130;18.104;2023-06-22T10:16:36;5.00;;;2.70;;
79493;SDS011;68951;53.130;18.104;2023-06-22T10:19:03;5.30;;;2.50;;
79493;SDS011;68951;53.130;18.104;2023-06-22T10:21:30;6.20;;;2.50;;
79493;SDS011;68951;53.130;18.104;2023-06-22T10:23:56;4.80;;;2.20;;
79493;SDS011;68951;53.130;18.104;2023-06-22T10:26:23;5.00;;;2.40;;
79493;SDS011;68951;53.130;18.104;2023-06-22T10:28:50;5.60;;;2.70;;
79493;SDS011;68951;53.130;18.104;2023-06-22T10:31:17;4.80;;;2.50;;
79493;SDS011;68951;53.130;18.104;2023-06-22T10:33:44;5.40;;;2.50;;
79493;SDS011;68951;53.130;18.104;2023-06-22T10:36:11;4.40;;;2.40;;
79493;SDS011;68951;53.130;18.104;2023-06-22T10:38:38;4.80;;;2.60;;
79493;SDS011;68951;53.130;18.104;2023-06-22T10:41:04;5.20;;;2.80;;
79493;SDS011;68951;53.130;18.104;2023-06-22T10:43:32;6.00;;;2.90;;
79493;SDS011;68951;53.130;18.104;2023-06-22T10:45:59;4.40;;;2.50;;
79493;SDS011;68951;53.130;18.104;2023-06-22T10:48:25;4.90;;;2.80;;
79493;SDS011;68951;53.130;18.104;2023-06-22T10:50:52;4.60;;;2.30;;
79493;SDS011;68951;53.130;18.104;2023-06-22T10:53:20;4.00;;;2.10;;
79493;SDS011;68951;53.130;18.104;2023-06-22T10:55:47;4.20;;;2.50;;
79493;SDS011;68951;53.130;18.104;2023-06-22T10:58:14;4.60;;;2.60;;
79493;SDS011;68951;53.130;18.104;2023-06-22T11:00:41;6.50;;;2.90;;
79493;SDS011;68951;53.130;18.104;2023-06-22T11:03:08;5.00;;;2.90;;
79493;SDS011;68951;53.130;18.104;2023-06-22T11:05:35;8.10;;;2.80;;
79493;SDS011;68951;53.130;18.104;2023-06-22T11:08:02;4.40;;;2.40;;
79493;SDS011;68951;53.130;18.104;2023-06-22T11:10:29;6.10;;;2.50;;
79493;SDS011;68951;53.130;18.104;2023-06-22T11:12:55;5.90;;;2.90;;
79493;SDS011;68951;53.130;18.104;2023-06-22T11:15:24;4.90;;;2.70;;
79493;SDS011;68951;53.130;18.104;2023-06-22T11:17:52;4.70;;;2.50;;
79493;SDS011;68951;53.130;18.104;2023-06-22T11:20:18;4.90;;;2.70;;
79493;SDS011;68951;53.130;18.104;2023-06-22T11:22:46;4.80;;;2.80;;
79493;SDS011;68951;53.130;18.104;2023-06-22T11:25:13;5.30;;;2.40;;
79493;SDS011;68951;53.130;18.104;2023-06-22T11:27:39;6.40;;;3.00;;
79493;SDS011;68951;53.130;18.104;2023-06-22T11:30:07;4.70;;;2.80;;
79493;SDS011;68951;53.130;18.104;2023-06-22T11:32:34;4.40;;;2.50;;
79493;SDS011;68951;53.130;18.104;2023-06-22T11:35:02;6.90;;;2.40;;
79493;SDS011;68951;53.130;18.104;2023-06-22T11:37:29;4.80;;;2.60;;
79493;SDS011;68951;53.130;18.104;2023-06-22T11:39:55;4.00;;;2.30;;
79493;SDS011;68951;53.130;18.104;2023-06-22T11:42:22;4.40;;;2.80;;
79493;SDS011;68951;53.130;18.104;2023-06-22T11:44:50;5.20;;;3.20;;
79493;SDS011;68951;53.130;18.104;2023-06-22T11:47:16;4.30;;;2.60;;
79493;SDS011;68951;53.130;18.104;2023-06-22T11:49:43;4.50;;;2.40;;
79493;SDS011;68951;53.130;18.104;2023-06-22T11:52:10;6.10;;;2.80;;
79493;SDS011;68951;53.130;18.104;2023-06-22T11:54:37;5.50;;;2.60;;
79493;SDS011;68951;53.130;18.104;2023-06-22T11:57:04;4.30;;;2.50;;
79493;SDS011;68951;53.130;18.104;2023-06-22T11:59:31;4.70;;;2.50;;
79493;SDS011;68951;53.130;18.104;2023-06-22T12:01:59;4.90;;;2.60;;
79493;SDS011;68951;53.130;18.104;2023-06-22T12:04:26;4.40;;;2.30;;
79493;SDS011;68951;53.130;18.104;2023-06-22T12:06:53;5.70;;;2.70;;
79493;SDS011;68951;53.130;18.104;2023-06-22T12:09:20;5.70;;;2.40;;
79493;SDS011;68951;53.130;18.104;2023-06-22T12:11:46;5.10;;;2.60;;
79493;SDS011;68951;53.130;18.104;2023-06-22T12:14:13;6.60;;;2.70;;
79493;SDS011;68951;53.130;18.104;2023-06-22T12:16:40;4.00;;;2.40;;
79493;SDS011;68951;53.130;18.104;2023-06-22T12:19:07;4.90;;;2.70;;
79493;SDS011;68951;53.130;18.104;2023-06-22T12:21:33;4.60;;;2.80;;
79493;SDS011;68951;53.130;18.104;2023-06-22T12:24:00;4.30;;;2.30;;
79493;SDS011;68951;53.130;18.104;2023-06-22T12:26:27;5.20;;;2.60;;
79493;SDS011;68951;53.130;18.104;2023-06-22T12:28:54;5.50;;;2.40;;
79493;SDS011;68951;53.130;18.104;2023-06-22T12:31:20;5.30;;;2.40;;
79493;SDS011;68951;53.130;18.104;2023-06-22T12:33:47;4.40;;;2.40;;
79493;SDS011;68951;53.130;18.104;2023-06-22T12:36:14;4.70;;;2.70;;
79493;SDS011;68951;53.130;18.104;2023-06-22T12:38:42;4.60;;;2.70;;
79493;SDS011;68951;53.130;18.104;2023-06-22T12:41:09;5.80;;;2.90;;
79493;SDS011;68951;53.130;18.104;2023-06-22T12:43:36;5.50;;;2.60;;
79493;SDS011;68951;53.130;18.104;2023-06-22T12:46:03;4.50;;;2.60;;
79493;SDS011;68951;53.130;18.104;2023-06-22T12:48:30;4.30;;;2.50;;
79493;SDS011;68951;53.130;18.104;2023-06-22T12:50:56;4.70;;;2.60;;
79493;SDS011;68951;53.130;18.104;2023-06-22T12:53:23;5.20;;;2.70;;
79493;SDS011;68951;53.130;18.104;2023-06-22T12:55:50;4.50;;;2.50;;
79493;SDS011;68951;53.130;18.104;2023-06-22T12:58:17;5.00;;;3.00;;
79493;SDS011;68951;53.130;18.104;2023-06-22T13:00:44;5.80;;;3.30;;
79493;SDS011;68951;53.130;18.104;2023-06-22T13:03:11;5.40;;;2.50;;
79493;SDS011;68951;53.130;18.104;2023-06-22T13:05:37;4.20;;;2.80;;
79493;SDS011;68951;53.130;18.104;2023-06-22T13:08:04;5.40;;;2.40;;
79493;SDS011;68951;53.130;18.104;2023-06-22T13:10:31;4.30;;;2.70;;
79493;SDS011;68951;53.130;18.104;2023-06-22T13:12:58;5.40;;;3.50;;
79493;SDS011;68951;53.130;18.104;2023-06-22T13:15:28;5.70;;;3.00;;
79493;SDS011;68951;53.130;18.104;2023-06-22T13:17:55;4.80;;;2.80;;
79493;SDS011;68951;53.130;18.104;2023-06-22T13:20:22;4.60;;;2.80;;
79493;SDS011;68951;53.130;18.104;2023-06-22T13:22:50;5.40;;;3.10;;
79493;SDS011;68951;53.130;18.104;2023-06-22T13:25:17;4.70;;;3.20;;
79493;SDS011;68951;53.130;18.104;2023-06-22T13:27:45;5.00;;;3.00;;
79493;SDS011;68951;53.130;18.104;2023-06-22T13:30:13;4.80;;;3.10;;
79493;SDS011;68951;53.130;18.104;2023-06-22T13:32:41;4.70;;;3.40;;
79493;SDS011;68951;53.130;18.104;2023-06-22T13:35:09;5.20;;;3.60;;
79493;SDS011;68951;53.130;18.104;2023-06-22T13:37:37;4.10;;;2.70;;
79493;SDS011;68951;53.130;18.104;2023-06-22T13:40:07;4.50;;;2.70;;
79493;SDS011;68951;53.130;18.104;2023-06-22T13:42:35;4.50;;;2.80;;
79493;SDS011;68951;53.130;18.104;2023-06-22T13:45:02;4.50;;;3.20;;
79493;SDS011;68951;53.130;18.104;2023-06-22T13:47:30;5.20;;;3.30;;
79493;SDS011;68951;53.130;18.104;2023-06-22T13:49:57;5.00;;;2.80;;
79493;SDS011;68951;53.130;18.104;2023-06-22T13:52:25;4.90;;;3.00;;
79493;SDS011;68951;53.130;18.104;2023-06-22T13:54:52;4.80;;;3.00;;
79493;SDS011;68951;53.130;18.104;2023-06-22T13:57:18;6.40;;;3.10;;
79493;SDS011;68951;53.130;18.104;2023-06-22T13:59:45;5.20;;;3.20;;
79493;SDS011;68951;53.130;18.104;2023-06-22T14:02:12;5.00;;;2.90;;
79493;SDS011;68951;53.130;18.104;2023-06-22T14:04:39;4.60;;;3.00;;
79493;SDS011;68951;53.130;18.104;2023-06-22T14:07:06;6.30;;;3.20;;
79493;SDS011;68951;53.130;18.104;2023-06-22T14:09:33;6.20;;;3.70;;
79493;SDS011;68951;53.130;18.104;2023-06-22T14:12:06;5.40;;;3.70;;
79493;SDS011;68951;53.130;18.104;2023-06-22T14:14:34;5.20;;;3.30;;
79493;SDS011;68951;53.130;18.104;2023-06-22T14:17:00;5.30;;;3.60;;
79493;SDS011;68951;53.130;18.104;2023-06-22T14:19:27;5.10;;;3.50;;
79493;SDS011;68951;53.130;18.104;2023-06-22T14:21:54;4.70;;;3.30;;
79493;SDS011;68951;53.130;18.104;2023-06-22T14:24:21;5.40;;;3.30;;
79493;SDS011;68951;53.130;18.104;2023-06-22T14:26:48;3.90;;;2.40;;
79493;SDS011;68951;53.130;18.104;2023-06-22T14:29:15;5.10;;;3.00;;
79493;SDS011;68951;53.130;18.104;2023-06-22T14:31:45;5.20;;;3.30;;
79493;SDS011;68951;53.130;18.104;2023-06-22T14:34:13;6.60;;;3.60;;
79493;SDS011;68951;53.130;18.104;2023-06-22T14:36:41;6.20;;;3.30;;
79493;SDS011;68951;53.130;18.104;2023-06-22T14:39:09;5.90;;;3.20;;